Pagrindinis puslapis
METAR-TAF:

METAR-TAF

Oro uostai :

Bratskas, Rusija

platuma: 56-22-15N, ilguma: 101-41-55E, Aukštis: 490 m

Dabartinis oras

Ataskaita buvo paskelbta 19 minutes, ne 06:30 UTC
Vėjas 12 kt iš Vakarų
Temperatūra 20°C
Drėgmė 73%
Slėgis 999 hPa
Matomumas 10 km arba daugiau

METAR: UIBB 190630Z 28006MPS 9999 NSC 20/15 Q0999 R30/CLRD60 NOSIG RMK QFE707/0943

Laikas: 14:49 (06:49 UTC)

Prognozė

Ataskaita buvo paskelbta 1 valandą ir 49 minutes, ne 05:00 UTC
Prognozė galioja nuo 19 metu 06 UTC su 20 metu 06 UTC
Vėjas 10 kt iš Vakarų su gūsio iki 19 kt
Matomumas 10 km arba daugiau
Su prošvaistėmis ne aukštis 1600 ft, Liūtiniai kamuoliniai debesys.
lietus
Laikinai
nuo 19 metu 06 UTC su 19 metu 18 UTC
Vėjas 27 kt nuo kintamojo kryptimis
perkūnija, lietus,

TAF: UIBB 190500Z 1906/2006 27005G10MPS 9999 -SHRA BKN016CB TEMPO 1906/1918 VRB14MPS -TSRA

Orai ataskaitas ir orų prognozės (METAR, TAF).

turimą stotys yra geltonos ir raudonos taškus žemėlapyje.

Perkelti pele per norėdami pamatyti stoties vardą.

Tada spustelėkite, norėdami matyti oro stebėjimo ir prognozės.

Norėdami pakeisti žemėlapį: spustelėkite ant žalios mygtukų su juodo kryžiaus žemyn,; žalią mygtuką su brūkšneliu, jei norite nutolinti; arba žalių rodyklių gretimoms žemėlapius.


METAR-TAF: